sensor_id;sensor_type;location;lat;lon;timestamp;pressure;altitude;pressure_sealevel;temperature;humidity
37298;BME280;30517;51.932;4.278;2023-05-20T00:00:32;102582.25;;;19.39;48.91
37298;BME280;30517;51.932;4.278;2023-05-20T00:03:12;102583.19;;;19.37;49.04
37298;BME280;30517;51.932;4.278;2023-05-20T00:05:53;102588.53;;;19.35;49.19
37298;BME280;30517;51.932;4.278;2023-05-20T00:08:34;102585.91;;;19.32;48.82
37298;BME280;30517;51.932;4.278;2023-05-20T00:11:15;102588.59;;;19.29;48.70
37298;BME280;30517;51.932;4.278;2023-05-20T00:13:55;102589.53;;;19.27;48.79
37298;BME280;30517;51.932;4.278;2023-05-20T00:16:36;102589.56;;;19.23;49.05
37298;BME280;30517;51.932;4.278;2023-05-20T00:19:17;102593.16;;;19.21;48.88
37298;BME280;30517;51.932;4.278;2023-05-20T00:21:58;102593.19;;;19.18;49.04
37298;BME280;30517;51.932;4.278;2023-05-20T00:24:38;102585.19;;;19.15;48.98
37298;BME280;30517;51.932;4.278;2023-05-20T00:27:19;102584.31;;;19.11;49.03
37298;BME280;30517;51.932;4.278;2023-05-20T00:30:00;102592.38;;;19.08;49.01
37298;BME280;30517;51.932;4.278;2023-05-20T00:32:40;102587.94;;;19.07;48.79
37298;BME280;30517;51.932;4.278;2023-05-20T00:35:21;102587.06;;;19.04;48.93
37298;BME280;30517;51.932;4.278;2023-05-20T00:38:02;102583.56;;;19.00;49.25
37298;BME280;30517;51.932;4.278;2023-05-20T00:40:43;102584.47;;;18.97;49.04
37298;BME280;30517;51.932;4.278;2023-05-20T00:43:23;102585.38;;;18.96;49.20
37298;BME280;30517;51.932;4.278;2023-05-20T00:46:05;102581.81;;;18.93;49.00
37298;BME280;30517;51.932;4.278;2023-05-20T00:48:46;102586.28;;;18.92;49.18
37298;BME280;30517;51.932;4.278;2023-05-20T00:51:27;102580.09;;;18.89;49.01
37298;BME280;30517;51.932;4.278;2023-05-20T00:54:08;102567.66;;;18.85;49.03
37298;BME280;30517;51.932;4.278;2023-05-20T00:56:49;102571.22;;;18.82;48.94
37298;BME280;30517;51.932;4.278;2023-05-20T00:59:30;102567.72;;;18.80;49.03
37298;BME280;30517;51.932;4.278;2023-05-20T01:02:11;102563.28;;;18.77;48.71
37298;BME280;30517;51.932;4.278;2023-05-20T01:04:52;102557.06;;;18.75;49.21
37298;BME280;30517;51.932;4.278;2023-05-20T01:07:35;102564.19;;;18.72;49.03
37298;BME280;30517;51.932;4.278;2023-05-20T01:10:16;102556.19;;;18.69;49.04
37298;BME280;30517;51.932;4.278;2023-05-20T01:12:57;102558.00;;;18.67;49.05
37298;BME280;30517;51.932;4.278;2023-05-20T01:15:39;102559.78;;;18.65;49.13
37298;BME280;30517;51.932;4.278;2023-05-20T01:18:19;102559.81;;;18.62;49.10
37298;BME280;30517;51.932;4.278;2023-05-20T01:21:05;102560.72;;;18.59;49.27
37298;BME280;30517;51.932;4.278;2023-05-20T01:23:47;102559.84;;;18.57;49.26
37298;BME280;30517;51.932;4.278;2023-05-20T01:26:28;102562.53;;;18.54;49.04
37298;BME280;30517;51.932;4.278;2023-05-20T01:29:08;102556.34;;;18.50;49.01
37298;BME280;30517;51.932;4.278;2023-05-20T01:31:52;102552.78;;;18.48;49.37
37298;BME280;30517;51.932;4.278;2023-05-20T01:34:35;102545.69;;;18.46;49.19
37298;BME280;30517;51.932;4.278;2023-05-20T01:37:17;102545.72;;;18.41;48.95
37298;BME280;30517;51.932;4.278;2023-05-20T01:39:58;102538.59;;;18.39;49.06
37298;BME280;30517;51.932;4.278;2023-05-20T01:42:39;102537.75;;;18.37;49.18
37298;BME280;30517;51.932;4.278;2023-05-20T01:45:22;102542.22;;;18.34;49.16
37298;BME280;30517;51.932;4.278;2023-05-20T01:48:03;102542.22;;;18.33;49.44
37298;BME280;30517;51.932;4.278;2023-05-20T01:50:44;102535.13;;;18.30;49.29
37298;BME280;30517;51.932;4.278;2023-05-20T01:53:25;102536.06;;;18.26;49.41
37298;BME280;30517;51.932;4.278;2023-05-20T01:56:05;102531.63;;;18.24;49.42
37298;BME280;30517;51.932;4.278;2023-05-20T01:58:46;102534.28;;;18.22;49.16
37298;BME280;30517;51.932;4.278;2023-05-20T02:01:27;102528.09;;;18.19;49.32
37298;BME280;30517;51.932;4.278;2023-05-20T02:04:08;102530.78;;;18.16;49.15
37298;BME280;30517;51.932;4.278;2023-05-20T02:06:48;102529.03;;;18.13;49.56
37298;BME280;30517;51.932;4.278;2023-05-20T02:09:29;102527.25;;;18.12;49.30
37298;BME280;30517;51.932;4.278;2023-05-20T02:12:10;102423.50;;;17.49;49.13
37298;BME280;30517;51.932;4.278;2023-05-20T02:14:56;102529.94;;;18.07;49.05
37298;BME280;30517;51.932;4.278;2023-05-20T02:17:37;102529.97;;;18.04;49.46
37298;BME280;30517;51.932;4.278;2023-05-20T02:20:18;102527.34;;;18.01;49.22
37298;BME280;30517;51.932;4.278;2023-05-20T02:22:59;102535.34;;;17.98;49.26
37298;BME280;30517;51.932;4.278;2023-05-20T02:25:40;102537.16;;;17.96;49.17
37298;BME280;30517;51.932;4.278;2023-05-20T02:28:20;102528.25;;;17.92;49.25
37298;BME280;30517;51.932;4.278;2023-05-20T02:31:04;102530.06;;;17.90;49.14
37298;BME280;30517;51.932;4.278;2023-05-20T02:33:45;102524.72;;;17.89;49.35
37298;BME280;30517;51.932;4.278;2023-05-20T02:36:26;102523.84;;;17.87;49.69
37298;BME280;30517;51.932;4.278;2023-05-20T02:39:06;102527.41;;;17.84;49.22
37298;BME280;30517;51.932;4.278;2023-05-20T02:41:47;102520.31;;;17.82;49.34
37298;BME280;30517;51.932;4.278;2023-05-20T02:44:28;102514.13;;;17.80;49.38
37298;BME280;30517;51.932;4.278;2023-05-20T02:47:09;102520.31;;;17.77;49.35
37298;BME280;30517;51.932;4.278;2023-05-20T02:49:49;102513.22;;;17.75;49.47
37298;BME280;30517;51.932;4.278;2023-05-20T02:52:30;102519.47;;;17.72;49.34
37298;BME280;30517;51.932;4.278;2023-05-20T02:55:11;102515.91;;;17.68;49.56
37298;BME280;30517;51.932;4.278;2023-05-20T02:57:52;102516.78;;;17.66;49.43
37298;BME280;30517;51.932;4.278;2023-05-20T03:00:33;102520.38;;;17.65;49.30
37298;BME280;30517;51.932;4.278;2023-05-20T03:03:19;102513.25;;;17.62;49.46
37298;BME280;30517;51.932;4.278;2023-05-20T03:06:00;102511.50;;;17.61;49.07
37298;BME280;30517;51.932;4.278;2023-05-20T03:08:41;102515.94;;;17.58;49.52
37298;BME280;30517;51.932;4.278;2023-05-20T03:11:22;102515.97;;;17.56;49.36
37298;BME280;30517;51.932;4.278;2023-05-20T03:14:02;102514.22;;;17.55;49.37
37298;BME280;30517;51.932;4.278;2023-05-20T03:16:43;102515.97;;;17.52;49.45
37298;BME280;30517;51.932;4.278;2023-05-20T03:19:24;102514.22;;;17.49;49.51
37298;BME280;30517;51.932;4.278;2023-05-20T03:22:05;102507.13;;;17.48;49.65
37298;BME280;30517;51.932;4.278;2023-05-20T03:24:46;102512.47;;;17.45;49.44
37298;BME280;30517;51.932;4.278;2023-05-20T03:27:27;102516.03;;;17.42;49.64
37298;BME280;30517;51.932;4.278;2023-05-20T03:30:08;102518.69;;;17.41;49.54
37298;BME280;30517;51.932;4.278;2023-05-20T03:32:49;102517.81;;;17.39;49.66
37298;BME280;30517;51.932;4.278;2023-05-20T03:35:30;102516.06;;;17.36;49.69
37298;BME280;30517;51.932;4.278;2023-05-20T03:38:11;102515.19;;;17.34;49.70
37298;BME280;30517;51.932;4.278;2023-05-20T03:40:51;102513.38;;;17.33;49.50
37298;BME280;30517;51.932;4.278;2023-05-20T03:43:32;102504.53;;;17.31;49.36
37298;BME280;30517;51.932;4.278;2023-05-20T03:46:13;102507.19;;;17.30;49.31
37298;BME280;30517;51.932;4.278;2023-05-20T03:48:54;102505.41;;;17.27;49.91
37298;BME280;30517;51.932;4.278;2023-05-20T03:51:34;102510.78;;;17.25;49.58
37298;BME280;30517;51.932;4.278;2023-05-20T03:54:15;102511.66;;;17.23;49.69
37298;BME280;30517;51.932;4.278;2023-05-20T03:56:56;102503.66;;;17.21;49.60
37298;BME280;30517;51.932;4.278;2023-05-20T03:59:37;102503.69;;;17.18;49.70
37298;BME280;30517;51.932;4.278;2023-05-20T04:02:18;102507.22;;;17.17;49.73
37298;BME280;30517;51.932;4.278;2023-05-20T04:04:58;102509.03;;;17.15;49.72
37298;BME280;30517;51.932;4.278;2023-05-20T04:07:40;102505.47;;;17.13;49.84
37298;BME280;30517;51.932;4.278;2023-05-20T04:10:21;102512.56;;;17.11;49.52
37298;BME280;30517;51.932;4.278;2023-05-20T04:13:01;102512.56;;;17.11;49.99
37298;BME280;30517;51.932;4.278;2023-05-20T04:15:42;102509.03;;;17.09;49.94
37298;BME280;30517;51.932;4.278;2023-05-20T04:18:23;102502.81;;;17.06;49.47
37298;BME280;30517;51.932;4.278;2023-05-20T04:21:04;102505.50;;;17.04;49.58
37298;BME280;30517;51.932;4.278;2023-05-20T04:23:44;102504.66;;;16.80;50.70
37298;BME280;30517;51.932;4.278;2023-05-20T04:26:25;102512.66;;;16.59;50.80
37298;BME280;30517;51.932;4.278;2023-05-20T04:29:06;102512.63;;;16.65;50.48
37298;BME280;30517;51.932;4.278;2023-05-20T04:31:46;102507.28;;;16.71;50.64
37298;BME280;30517;51.932;4.278;2023-05-20T04:34:30;102505.53;;;16.75;50.03
37298;BME280;30517;51.932;4.278;2023-05-20T04:37:14;102510.00;;;16.77;50.16
37298;BME280;30517;51.932;4.278;2023-05-20T04:39:54;102509.97;;;16.79;50.21
37298;BME280;30517;51.932;4.278;2023-05-20T04:42:35;102509.97;;;16.79;49.98
37298;BME280;30517;51.932;4.278;2023-05-20T04:45:16;102509.97;;;16.79;50.12
37298;BME280;30517;51.932;4.278;2023-05-20T04:47:57;102399.94;;;16.15;49.80
37298;BME280;30517;51.932;4.278;2023-05-20T04:50:38;102509.06;;;16.75;50.07
37298;BME280;30517;51.932;4.278;2023-05-20T04:53:20;102507.31;;;16.74;49.75
37298;BME280;30517;51.932;4.278;2023-05-20T04:56:02;102506.41;;;16.74;50.12
37298;BME280;30517;51.932;4.278;2023-05-20T04:58:43;102502.88;;;16.72;49.77
37298;BME280;30517;51.932;4.278;2023-05-20T05:01:23;102501.97;;;16.71;49.71
37298;BME280;30517;51.932;4.278;2023-05-20T05:04:04;102504.63;;;16.68;49.66
37298;BME280;30517;51.932;4.278;2023-05-20T05:06:46;102510.84;;;16.69;50.04
37298;BME280;30517;51.932;4.278;2023-05-20T05:09:27;102503.78;;;16.66;50.10
37298;BME280;30517;51.932;4.278;2023-05-20T05:12:08;102507.31;;;16.65;50.11
37298;BME280;30517;51.932;4.278;2023-05-20T05:14:49;102502.88;;;16.64;50.22
37298;BME280;30517;51.932;4.278;2023-05-20T05:17:30;102508.22;;;16.61;49.85
37298;BME280;30517;51.932;4.278;2023-05-20T05:20:10;102496.66;;;16.60;49.73
37298;BME280;30517;51.932;4.278;2023-05-20T05:22:52;102494.00;;;16.57;50.20
37298;BME280;30517;51.932;4.278;2023-05-20T05:25:33;102500.22;;;16.58;49.81
37298;BME280;30517;51.932;4.278;2023-05-20T05:28:14;102501.09;;;16.57;49.68
37298;BME280;30517;51.932;4.278;2023-05-20T05:30:54;102500.22;;;16.56;49.90
37298;BME280;30517;51.932;4.278;2023-05-20T05:33:35;102499.34;;;16.56;50.15
37298;BME280;30517;51.932;4.278;2023-05-20T05:36:16;102490.44;;;16.54;50.29
37298;BME280;30517;51.932;4.278;2023-05-20T05:38:57;102493.13;;;16.54;50.34
37298;BME280;30517;51.932;4.278;2023-05-20T05:41:37;102486.88;;;16.52;50.10
37298;BME280;30517;51.932;4.278;2023-05-20T05:44:18;102489.56;;;16.52;50.13
37298;BME280;30517;51.932;4.278;2023-05-20T05:46:59;102482.47;;;16.51;50.34
37298;BME280;30517;51.932;4.278;2023-05-20T05:49:39;102491.31;;;16.50;50.40
37298;BME280;30517;51.932;4.278;2023-05-20T05:52:20;102486.91;;;16.50;49.90
37298;BME280;30517;51.932;4.278;2023-05-20T05:55:01;102486.91;;;16.49;49.91
37298;BME280;30517;51.932;4.278;2023-05-20T05:57:42;102495.78;;;16.49;49.86
37298;BME280;30517;51.932;4.278;2023-05-20T06:00:23;102494.88;;;16.49;50.16
37298;BME280;30517;51.932;4.278;2023-05-20T06:03:03;102497.56;;;16.49;50.11
37298;BME280;30517;51.932;4.278;2023-05-20T06:05:44;102495.78;;;16.48;50.28
37298;BME280;30517;51.932;4.278;2023-05-20T06:08:26;102500.22;;;16.49;50.80
37298;BME280;30517;51.932;4.278;2023-05-20T06:11:07;102491.31;;;16.50;50.50
37298;BME280;30517;51.932;4.278;2023-05-20T06:13:48;102495.78;;;16.51;50.76
37298;BME280;30517;51.932;4.278;2023-05-20T06:16:28;102493.13;;;16.51;50.42
37298;BME280;30517;51.932;4.278;2023-05-20T06:19:09;102481.59;;;16.50;50.67
37298;BME280;30517;51.932;4.278;2023-05-20T06:21:50;102482.47;;;16.51;51.00
37298;BME280;30517;51.932;4.278;2023-05-20T06:24:33;102480.69;;;16.53;51.12
37298;BME280;30517;51.932;4.278;2023-05-20T06:27:13;102489.56;;;16.53;51.10
37298;BME280;30517;51.932;4.278;2023-05-20T06:29:54;102486.00;;;16.54;51.07
37298;BME280;30517;51.932;4.278;2023-05-20T06:32:35;102484.22;;;16.55;50.93
37298;BME280;30517;51.932;4.278;2023-05-20T06:35:16;102482.47;;;16.55;51.06
37298;BME280;30517;51.932;4.278;2023-05-20T06:37:57;102486.00;;;16.56;50.99
37298;BME280;30517;51.932;4.278;2023-05-20T06:40:37;102491.34;;;16.56;51.12
37298;BME280;30517;51.932;4.278;2023-05-20T06:43:18;102483.34;;;16.57;50.80
37298;BME280;30517;51.932;4.278;2023-05-20T06:45:59;102481.59;;;16.58;50.99
37298;BME280;30517;51.932;4.278;2023-05-20T06:48:39;102479.78;;;16.60;50.93
37298;BME280;30517;51.932;4.278;2023-05-20T06:51:20;102479.78;;;16.60;50.56
37298;BME280;30517;51.932;4.278;2023-05-20T06:54:01;102473.59;;;16.61;50.98
37298;BME280;30517;51.932;4.278;2023-05-20T06:56:41;102470.91;;;16.61;50.51
37298;BME280;30517;51.932;4.278;2023-05-20T06:59:23;102473.56;;;16.64;50.94
37298;BME280;30517;51.932;4.278;2023-05-20T07:02:04;102470.03;;;16.64;50.65
37298;BME280;30517;51.932;4.278;2023-05-20T07:04:44;102468.25;;;16.64;50.77
37298;BME280;30517;51.932;4.278;2023-05-20T07:07:25;102475.34;;;16.65;50.96
37298;BME280;30517;51.932;4.278;2023-05-20T07:10:06;102464.66;;;16.68;50.68
37298;BME280;30517;51.932;4.278;2023-05-20T07:12:47;102468.22;;;16.70;50.72
37298;BME280;30517;51.932;4.278;2023-05-20T07:15:28;102464.66;;;16.71;51.08
37298;BME280;30517;51.932;4.278;2023-05-20T07:18:08;102461.13;;;16.72;50.89
37298;BME280;30517;51.932;4.278;2023-05-20T07:20:50;102462.91;;;16.75;50.44
37298;BME280;30517;51.932;4.278;2023-05-20T07:23:32;102456.66;;;16.76;50.72
37298;BME280;30517;51.932;4.278;2023-05-20T07:26:12;102460.22;;;16.76;50.58
37298;BME280;30517;51.932;4.278;2023-05-20T07:28:53;102456.69;;;16.79;50.42
37298;BME280;30517;51.932;4.278;2023-05-20T07:31:34;102456.69;;;16.80;50.05
37298;BME280;30517;51.932;4.278;2023-05-20T07:34:15;102454.91;;;16.81;50.40
37298;BME280;30517;51.932;4.278;2023-05-20T07:36:56;102450.47;;;16.83;50.09
37298;BME280;30517;51.932;4.278;2023-05-20T07:39:37;102461.09;;;16.85;50.19
37298;BME280;30517;51.932;4.278;2023-05-20T07:42:18;102454.00;;;16.87;50.50
37298;BME280;30517;51.932;4.278;2023-05-20T07:44:58;102450.47;;;16.88;50.02
37298;BME280;30517;51.932;4.278;2023-05-20T07:47:39;102447.78;;;16.89;50.12
37298;BME280;30517;51.932;4.278;2023-05-20T07:50:20;102433.56;;;16.90;50.26
37298;BME280;30517;51.932;4.278;2023-05-20T07:53:00;102435.34;;;16.91;50.57
37298;BME280;30517;51.932;4.278;2023-05-20T07:55:41;102437.13;;;16.94;50.80
37298;BME280;30517;51.932;4.278;2023-05-20T07:58:25;102423.75;;;16.95;50.75
37298;BME280;30517;51.932;4.278;2023-05-20T08:01:06;102431.78;;;16.97;50.62
37298;BME280;30517;51.932;4.278;2023-05-20T08:03:48;102432.66;;;16.97;50.57
37298;BME280;30517;51.932;4.278;2023-05-20T08:06:28;102431.75;;;17.00;50.68
37298;BME280;30517;51.932;4.278;2023-05-20T08:09:10;102422.84;;;17.01;50.48
37298;BME280;30517;51.932;4.278;2023-05-20T08:11:51;102432.66;;;17.02;50.86
37298;BME280;30517;51.932;4.278;2023-05-20T08:14:32;102432.63;;;17.05;50.71
37298;BME280;30517;51.932;4.278;2023-05-20T08:17:12;102434.41;;;17.08;51.35
37298;BME280;30517;51.932;4.278;2023-05-20T08:19:53;102436.16;;;17.09;50.98
37298;BME280;30517;51.932;4.278;2023-05-20T08:22:34;102429.03;;;17.11;51.11
37298;BME280;30517;51.932;4.278;2023-05-20T08:25:16;102428.16;;;17.13;51.14
37298;BME280;30517;51.932;4.278;2023-05-20T08:27:57;102431.69;;;17.15;51.17
37298;BME280;30517;51.932;4.278;2023-05-20T08:30:40;102422.81;;;17.18;51.34
37298;BME280;30517;51.932;4.278;2023-05-20T08:33:21;102421.03;;;17.18;50.92
37298;BME280;30517;51.932;4.278;2023-05-20T08:36:02;102422.75;;;17.22;51.26
37298;BME280;30517;51.932;4.278;2023-05-20T08:38:43;102428.97;;;17.24;51.24
37298;BME280;30517;51.932;4.278;2023-05-20T08:41:23;102415.66;;;17.26;51.42
37298;BME280;30517;51.932;4.278;2023-05-20T08:44:04;102423.63;;;17.28;51.42
37298;BME280;30517;51.932;4.278;2023-05-20T08:46:46;102409.41;;;17.30;51.72
37298;BME280;30517;51.932;4.278;2023-05-20T08:49:27;102411.16;;;17.33;51.37
37298;BME280;30517;51.932;4.278;2023-05-20T08:52:11;102411.13;;;17.36;51.44
37298;BME280;30517;51.932;4.278;2023-05-20T08:54:52;102411.16;;;17.37;51.51
37298;BME280;30517;51.932;4.278;2023-05-20T08:57:33;102409.34;;;17.41;51.43
37298;BME280;30517;51.932;4.278;2023-05-20T09:00:16;102403.09;;;17.43;51.51
37298;BME280;30517;51.932;4.278;2023-05-20T09:02:58;102400.44;;;17.45;51.60
37298;BME280;30517;51.932;4.278;2023-05-20T09:05:39;102394.19;;;17.47;51.82
37298;BME280;30517;51.932;4.278;2023-05-20T09:08:23;102397.72;;;17.50;51.77
37298;BME280;30517;51.932;4.278;2023-05-20T09:11:08;102406.59;;;17.53;51.31
37298;BME280;30517;51.932;4.278;2023-05-20T09:13:49;102396.81;;;17.55;51.58
37298;BME280;30517;51.932;4.278;2023-05-20T09:16:30;102401.22;;;17.58;51.55
37298;BME280;30517;51.932;4.278;2023-05-20T09:19:11;102399.44;;;17.61;51.48
37298;BME280;30517;51.932;4.278;2023-05-20T09:21:53;102400.31;;;17.63;51.50
37298;BME280;30517;51.932;4.278;2023-05-20T09:24:34;102390.50;;;17.65;51.69
37298;BME280;30517;51.932;4.278;2023-05-20T09:27:14;102388.72;;;17.67;51.66
37298;BME280;30517;51.932;4.278;2023-05-20T09:29:55;102393.16;;;17.72;51.55
37298;BME280;30517;51.932;4.278;2023-05-20T09:32:36;102388.66;;;17.74;51.51
37298;BME280;30517;51.932;4.278;2023-05-20T09:35:17;102386.00;;;17.75;51.24
37298;BME280;30517;51.932;4.278;2023-05-20T09:37:58;102382.41;;;17.78;51.45
37298;BME280;30517;51.932;4.278;2023-05-20T09:40:39;102377.09;;;17.81;51.57
37298;BME280;30517;51.932;4.278;2023-05-20T09:43:21;102386.84;;;17.83;51.52
37298;BME280;30517;51.932;4.278;2023-05-20T09:46:03;102373.47;;;17.86;51.66
37298;BME280;30517;51.932;4.278;2023-05-20T09:48:44;102378.81;;;17.88;51.71
37298;BME280;30517;51.932;4.278;2023-05-20T09:51:26;102377.00;;;17.91;51.51
37298;BME280;30517;51.932;4.278;2023-05-20T09:54:09;102375.22;;;17.94;51.43
37298;BME280;30517;51.932;4.278;2023-05-20T09:56:51;102376.06;;;17.96;51.51
37298;BME280;30517;51.932;4.278;2023-05-20T09:59:32;102367.13;;;17.98;51.26
37298;BME280;30517;51.932;4.278;2023-05-20T10:02:15;102359.13;;;18.01;51.41
37298;BME280;30517;51.932;4.278;2023-05-20T10:04:56;102359.97;;;18.05;51.47
37298;BME280;30517;51.932;4.278;2023-05-20T10:07:49;102359.06;;;18.07;51.41
37298;BME280;30517;51.932;4.278;2023-05-20T10:13:59;102359.03;;;18.12;51.15
37298;BME280;30517;51.932;4.278;2023-05-20T10:16:42;102345.63;;;18.15;51.19
37298;BME280;30517;51.932;4.278;2023-05-20T10:19:28;102344.72;;;18.18;51.22
37298;BME280;30517;51.932;4.278;2023-05-20T10:22:10;102345.56;;;18.21;51.25
37298;BME280;30517;51.932;4.278;2023-05-20T10:24:56;102344.66;;;18.24;51.01
37298;BME280;30517;51.932;4.278;2023-05-20T10:27:41;102340.16;;;18.27;51.09
37298;BME280;30517;51.932;4.278;2023-05-20T10:30:22;102338.34;;;18.29;51.07
37298;BME280;30517;51.932;4.278;2023-05-20T10:33:03;102331.19;;;18.33;51.02
37298;BME280;30517;51.932;4.278;2023-05-20T10:35:51;102339.16;;;18.36;50.84
37298;BME280;30517;51.932;4.278;2023-05-20T10:38:32;102326.69;;;18.40;50.75
37298;BME280;30517;51.932;4.278;2023-05-20T10:41:13;102322.22;;;18.42;50.81
37298;BME280;30517;51.932;4.278;2023-05-20T10:44:01;102327.63;;;18.32;47.75
37298;BME280;30517;51.932;4.278;2023-05-20T10:46:42;102331.09;;;18.42;48.03
37298;BME280;30517;51.932;4.278;2023-05-20T10:49:23;102321.16;;;18.53;48.25
37298;BME280;30517;51.932;4.278;2023-05-20T10:52:05;102321.97;;;18.60;48.59
37298;BME280;30517;51.932;4.278;2023-05-20T10:54:47;102314.00;;;18.58;48.23
37298;BME280;30517;51.932;4.278;2023-05-20T10:57:33;102307.66;;;18.66;48.43
37298;BME280;30517;51.932;4.278;2023-05-20T11:00:14;102298.69;;;18.68;48.62
37298;BME280;30517;51.932;4.278;2023-05-20T11:02:55;102302.19;;;18.73;48.92
37298;BME280;30517;51.932;4.278;2023-05-20T11:05:37;102291.50;;;18.76;49.07
37298;BME280;30517;51.932;4.278;2023-05-20T11:08:18;102293.19;;;18.82;49.32
37298;BME280;30517;51.932;4.278;2023-05-20T11:10:59;102283.38;;;18.84;49.15
37298;BME280;30517;51.932;4.278;2023-05-20T11:13:40;102286.91;;;18.88;49.28
37298;BME280;30517;51.932;4.278;2023-05-20T11:16:20;102288.63;;;18.92;49.46
37298;BME280;30517;51.932;4.278;2023-05-20T11:19:01;102282.38;;;18.93;49.55
37298;BME280;30517;51.932;4.278;2023-05-20T11:21:42;102285.91;;;18.96;49.54
37298;BME280;30517;51.932;4.278;2023-05-20T11:24:24;102287.66;;;18.99;49.50
37298;BME280;30517;51.932;4.278;2023-05-20T11:27:05;102283.16;;;19.01;49.53
37298;BME280;30517;51.932;4.278;2023-05-20T11:29:48;102275.97;;;19.05;49.60
37298;BME280;30517;51.932;4.278;2023-05-20T11:32:29;102278.59;;;19.08;49.41
37298;BME280;30517;51.932;4.278;2023-05-20T11:35:22;102272.28;;;19.12;49.42
37298;BME280;30517;51.932;4.278;2023-05-20T11:38:04;102279.38;;;19.16;49.62
37298;BME280;30517;51.932;4.278;2023-05-20T11:40:51;102272.16;;;19.21;49.54
37298;BME280;30517;51.932;4.278;2023-05-20T11:43:32;102260.53;;;19.23;49.43
37298;BME280;30517;51.932;4.278;2023-05-20T11:46:13;102263.16;;;19.27;49.43
37298;BME280;30517;51.932;4.278;2023-05-20T11:48:53;102269.31;;;19.30;49.50
37298;BME280;30517;51.932;4.278;2023-05-20T11:51:34;102257.69;;;19.34;49.44
37298;BME280;30517;51.932;4.278;2023-05-20T11:54:16;102260.28;;;19.39;49.52
37298;BME280;30517;51.932;4.278;2023-05-20T11:56:57;102262.00;;;19.41;49.58
37298;BME280;30517;51.932;4.278;2023-05-20T11:59:38;102255.69;;;19.47;49.67
37298;BME280;30517;51.932;4.278;2023-05-20T12:02:18;102248.47;;;19.51;49.57
37298;BME280;30517;51.932;4.278;2023-05-20T12:04:59;102248.44;;;19.54;49.46
37298;BME280;30517;51.932;4.278;2023-05-20T12:07:40;102244.81;;;19.58;49.55
37298;BME280;30517;51.932;4.278;2023-05-20T12:10:21;102249.19;;;19.62;49.52
37298;BME280;30517;51.932;4.278;2023-05-20T12:13:02;102237.56;;;19.66;49.46
37298;BME280;30517;51.932;4.278;2023-05-20T12:15:44;102228.53;;;19.70;49.59
37298;BME280;30517;51.932;4.278;2023-05-20T12:18:24;102242.72;;;19.75;49.60
37298;BME280;30517;51.932;4.278;2023-05-20T12:21:05;102241.75;;;19.79;49.47
37298;BME280;30517;51.932;4.278;2023-05-20T12:23:46;102242.59;;;19.83;49.63
37298;BME280;30517;51.932;4.278;2023-05-20T12:26:29;102236.22;;;19.88;49.68
37298;BME280;30517;51.932;4.278;2023-05-20T12:29:10;102243.28;;;19.93;49.44
37298;BME280;30517;51.932;4.278;2023-05-20T12:31:50;102233.38;;;19.98;49.43
37298;BME280;30517;51.932;4.278;2023-05-20T12:34:31;102236.88;;;20.01;49.69
37298;BME280;30517;51.932;4.278;2023-05-20T12:37:12;102248.41;;;20.06;49.53
37298;BME280;30517;51.932;4.278;2023-05-20T12:39:53;102234.00;;;20.12;49.63
37298;BME280;30517;51.932;4.278;2023-05-20T12:42:37;102230.31;;;20.16;48.21
37298;BME280;30517;51.932;4.278;2023-05-20T12:45:18;102223.00;;;20.24;48.66
37298;BME280;30517;51.932;4.278;2023-05-20T12:47:58;102228.25;;;20.30;49.06
37298;BME280;30517;51.932;4.278;2023-05-20T12:50:39;102225.41;;;20.38;49.10
37298;BME280;30517;51.932;4.278;2023-05-20T12:53:20;102227.03;;;20.47;49.21
37298;BME280;30517;51.932;4.278;2023-05-20T12:56:01;102219.75;;;20.55;49.00
37298;BME280;30517;51.932;4.278;2023-05-20T12:58:42;102221.34;;;20.62;49.03
37298;BME280;30517;51.932;4.278;2023-05-20T13:01:22;102223.84;;;20.70;49.02
37298;BME280;30517;51.932;4.278;2023-05-20T13:04:03;102220.19;;;20.74;49.00
37298;BME280;30517;51.932;4.278;2023-05-20T13:06:44;102225.41;;;20.80;49.00
37298;BME280;30517;51.932;4.278;2023-05-20T13:09:24;102201.19;;;20.85;48.91
37298;BME280;30517;51.932;4.278;2023-05-20T13:12:05;102209.94;;;20.91;48.81
37298;BME280;30517;51.932;4.278;2023-05-20T13:14:46;102196.44;;;20.96;49.06
37298;BME280;30517;51.932;4.278;2023-05-20T13:17:27;102205.25;;;21.01;49.03
37298;BME280;30517;51.932;4.278;2023-05-20T13:20:08;102204.16;;;21.08;48.79
37298;BME280;30517;51.932;4.278;2023-05-20T13:22:49;102196.91;;;21.13;48.84
37298;BME280;30517;51.932;4.278;2023-05-20T13:25:30;102198.59;;;21.17;49.02
37298;BME280;30517;51.932;4.278;2023-05-20T13:28:11;102205.56;;;21.25;48.92
37298;BME280;30517;51.932;4.278;2023-05-20T13:30:55;102209.00;;;21.30;49.04
37298;BME280;30517;51.932;4.278;2023-05-20T13:33:36;102184.69;;;21.36;48.71
37298;BME280;30517;51.932;4.278;2023-05-20T13:36:16;102198.88;;;21.42;48.75
37298;BME280;30517;51.932;4.278;2023-05-20T13:38:57;102196.94;;;21.48;48.63
37298;BME280;30517;51.932;4.278;2023-05-20T13:41:38;102194.97;;;21.54;48.60
37298;BME280;30517;51.932;4.278;2023-05-20T13:44:19;102185.84;;;21.61;48.53
37298;BME280;30517;51.932;4.278;2023-05-20T13:47:00;102194.66;;;21.67;48.66
37298;BME280;30517;51.932;4.278;2023-05-20T13:49:40;102183.75;;;21.73;48.58
37298;BME280;30517;51.932;4.278;2023-05-20T13:52:21;102187.19;;;21.78;48.50
37298;BME280;30517;51.932;4.278;2023-05-20T13:55:02;102178.13;;;21.82;48.39
37298;BME280;30517;51.932;4.278;2023-05-20T13:57:46;102185.13;;;21.87;48.40
37298;BME280;30517;51.932;4.278;2023-05-20T14:00:26;102174.22;;;21.94;48.20
37298;BME280;30517;51.932;4.278;2023-05-20T14:03:07;102178.53;;;21.98;48.24
37298;BME280;30517;51.932;4.278;2023-05-20T14:05:49;102171.25;;;22.03;48.34